sensor_id;sensor_type;location;lat;lon;timestamp;temperature;humidity
66190;DHT22;52992;52.084;5.412;2022-12-20T00:01:19;13.20;64.30
66190;DHT22;52992;52.084;5.412;2022-12-20T00:03:49;13.20;64.10
66190;DHT22;52992;52.084;5.412;2022-12-20T00:06:17;13.20;64.10
66190;DHT22;52992;52.084;5.412;2022-12-20T00:08:44;13.20;64.10
66190;DHT22;52992;52.084;5.412;2022-12-20T00:11:11;13.30;64.30
66190;DHT22;52992;52.084;5.412;2022-12-20T00:13:39;13.30;64.00
66190;DHT22;52992;52.084;5.412;2022-12-20T00:16:17;13.30;63.70
66190;DHT22;52992;52.084;5.412;2022-12-20T00:18:44;13.30;63.80
66190;DHT22;52992;52.084;5.412;2022-12-20T00:21:13;13.30;63.70
66190;DHT22;52992;52.084;5.412;2022-12-20T00:23:40;13.40;63.70
66190;DHT22;52992;52.084;5.412;2022-12-20T00:26:10;13.40;63.80
66190;DHT22;52992;52.084;5.412;2022-12-20T00:28:39;13.40;63.70
66190;DHT22;52992;52.084;5.412;2022-12-20T00:31:07;13.40;63.60
66190;DHT22;52992;52.084;5.412;2022-12-20T00:33:35;13.40;63.60
66190;DHT22;52992;52.084;5.412;2022-12-20T00:36:03;13.50;63.50
66190;DHT22;52992;52.084;5.412;2022-12-20T00:38:31;13.50;63.30
66190;DHT22;52992;52.084;5.412;2022-12-20T00:41:02;13.50;63.30
66190;DHT22;52992;52.084;5.412;2022-12-20T00:43:30;13.50;63.20
66190;DHT22;52992;52.084;5.412;2022-12-20T00:45:58;13.50;63.30
66190;DHT22;52992;52.084;5.412;2022-12-20T00:48:26;13.60;63.30
66190;DHT22;52992;52.084;5.412;2022-12-20T00:50:57;13.60;63.30
66190;DHT22;52992;52.084;5.412;2022-12-20T00:53:24;13.60;63.20
66190;DHT22;52992;52.084;5.412;2022-12-20T00:55:52;13.60;63.00
66190;DHT22;52992;52.084;5.412;2022-12-20T00:58:19;13.60;62.90
66190;DHT22;52992;52.084;5.412;2022-12-20T01:00:46;13.70;63.00
66190;DHT22;52992;52.084;5.412;2022-12-20T01:03:22;13.70;62.80
66190;DHT22;52992;52.084;5.412;2022-12-20T01:05:56;13.70;62.70
66190;DHT22;52992;52.084;5.412;2022-12-20T01:08:23;13.90;62.80
66190;DHT22;52992;52.084;5.412;2022-12-20T01:13:32;13.80;62.50
66190;DHT22;52992;52.084;5.412;2022-12-20T01:16:08;13.90;62.70
66190;DHT22;52992;52.084;5.412;2022-12-20T01:18:36;13.80;62.80
66190;DHT22;52992;52.084;5.412;2022-12-20T01:21:05;13.80;63.10
66190;DHT22;52992;52.084;5.412;2022-12-20T01:23:31;13.80;63.40
66190;DHT22;52992;52.084;5.412;2022-12-20T01:26:00;13.70;63.60
66190;DHT22;52992;52.084;5.412;2022-12-20T01:28:27;13.70;64.50
66190;DHT22;52992;52.084;5.412;2022-12-20T01:30:54;13.60;64.10
66190;DHT22;52992;52.084;5.412;2022-12-20T01:33:21;13.60;64.50
66190;DHT22;52992;52.084;5.412;2022-12-20T01:35:58;13.50;64.90
66190;DHT22;52992;52.084;5.412;2022-12-20T01:38:26;13.50;65.50
66190;DHT22;52992;52.084;5.412;2022-12-20T01:40:54;13.40;66.20
66190;DHT22;52992;52.084;5.412;2022-12-20T01:43:23;13.30;66.80
66190;DHT22;52992;52.084;5.412;2022-12-20T01:45:51;13.30;67.20
66190;DHT22;52992;52.084;5.412;2022-12-20T01:48:22;13.30;67.50
66190;DHT22;52992;52.084;5.412;2022-12-20T01:50:51;13.20;68.00
66190;DHT22;52992;52.084;5.412;2022-12-20T01:53:20;13.20;68.40
66190;DHT22;52992;52.084;5.412;2022-12-20T01:55:47;13.10;68.90
66190;DHT22;52992;52.084;5.412;2022-12-20T01:58:17;13.10;69.20
66190;DHT22;52992;52.084;5.412;2022-12-20T02:00:45;13.00;69.40
66190;DHT22;52992;52.084;5.412;2022-12-20T02:03:13;13.10;70.40
66190;DHT22;52992;52.084;5.412;2022-12-20T02:05:43;13.10;70.50
66190;DHT22;52992;52.084;5.412;2022-12-20T02:08:16;13.10;71.00
66190;DHT22;52992;52.084;5.412;2022-12-20T02:10:54;13.10;71.30
66190;DHT22;52992;52.084;5.412;2022-12-20T02:16:56;13.00;72.00
66190;DHT22;52992;52.084;5.412;2022-12-20T02:28:38;13.00;72.40
66190;DHT22;52992;52.084;5.412;2022-12-20T02:31:11;13.00;72.50
66190;DHT22;52992;52.084;5.412;2022-12-20T02:33:42;13.00;72.50
66190;DHT22;52992;52.084;5.412;2022-12-20T02:36:16;13.00;72.50
66190;DHT22;52992;52.084;5.412;2022-12-20T02:38:45;13.00;72.50
66190;DHT22;52992;52.084;5.412;2022-12-20T02:41:21;13.00;72.60
66190;DHT22;52992;52.084;5.412;2022-12-20T02:43:53;13.00;72.60
66190;DHT22;52992;52.084;5.412;2022-12-20T02:46:39;13.10;72.60
66190;DHT22;52992;52.084;5.412;2022-12-20T02:49:17;13.00;73.00
66190;DHT22;52992;52.084;5.412;2022-12-20T02:51:47;13.00;73.10
66190;DHT22;52992;52.084;5.412;2022-12-20T02:54:18;13.00;73.00
66190;DHT22;52992;52.084;5.412;2022-12-20T02:56:54;13.10;73.20
66190;DHT22;52992;52.084;5.412;2022-12-20T02:59:33;13.00;73.00
66190;DHT22;52992;52.084;5.412;2022-12-20T03:02:02;13.10;73.30
66190;DHT22;52992;52.084;5.412;2022-12-20T03:04:34;13.10;74.00
66190;DHT22;52992;52.084;5.412;2022-12-20T03:07:05;13.10;73.10
66190;DHT22;52992;52.084;5.412;2022-12-20T03:09:37;13.00;73.20
66190;DHT22;52992;52.084;5.412;2022-12-20T03:12:04;13.00;73.40
66190;DHT22;52992;52.084;5.412;2022-12-20T03:14:34;13.00;73.30
66190;DHT22;52992;52.084;5.412;2022-12-20T03:17:05;13.00;73.30
66190;DHT22;52992;52.084;5.412;2022-12-20T03:19:32;13.00;73.40
66190;DHT22;52992;52.084;5.412;2022-12-20T03:21:59;13.00;73.50
66190;DHT22;52992;52.084;5.412;2022-12-20T03:24:26;13.00;73.40
66190;DHT22;52992;52.084;5.412;2022-12-20T03:26:53;13.00;73.50
66190;DHT22;52992;52.084;5.412;2022-12-20T03:29:22;13.00;73.70
66190;DHT22;52992;52.084;5.412;2022-12-20T03:31:49;13.00;73.90
66190;DHT22;52992;52.084;5.412;2022-12-20T03:34:16;13.00;74.00
66190;DHT22;52992;52.084;5.412;2022-12-20T03:36:43;13.00;73.90
66190;DHT22;52992;52.084;5.412;2022-12-20T03:39:10;13.00;73.80
66190;DHT22;52992;52.084;5.412;2022-12-20T03:41:40;13.00;73.80
66190;DHT22;52992;52.084;5.412;2022-12-20T03:44:08;13.00;73.80
66190;DHT22;52992;52.084;5.412;2022-12-20T03:46:35;13.10;73.80
66190;DHT22;52992;52.084;5.412;2022-12-20T03:49:03;13.10;73.70
66190;DHT22;52992;52.084;5.412;2022-12-20T03:51:31;13.20;73.60
66190;DHT22;52992;52.084;5.412;2022-12-20T03:53:58;13.20;74.00
66190;DHT22;52992;52.084;5.412;2022-12-20T03:56:42;13.20;73.70
66190;DHT22;52992;52.084;5.412;2022-12-20T03:59:09;13.30;73.20
66190;DHT22;52992;52.084;5.412;2022-12-20T04:01:36;13.20;73.30
66190;DHT22;52992;52.084;5.412;2022-12-20T04:04:04;13.20;73.30
66190;DHT22;52992;52.084;5.412;2022-12-20T04:06:31;13.30;73.30
66190;DHT22;52992;52.084;5.412;2022-12-20T04:08:58;13.30;73.10
66190;DHT22;52992;52.084;5.412;2022-12-20T04:11:31;13.40;73.00
66190;DHT22;52992;52.084;5.412;2022-12-20T04:14:12;13.40;72.90
66190;DHT22;52992;52.084;5.412;2022-12-20T04:16:39;13.40;72.80
66190;DHT22;52992;52.084;5.412;2022-12-20T04:19:08;13.40;72.90
66190;DHT22;52992;52.084;5.412;2022-12-20T04:21:39;13.40;72.70
66190;DHT22;52992;52.084;5.412;2022-12-20T04:24:07;13.40;72.70
66190;DHT22;52992;52.084;5.412;2022-12-20T04:26:53;13.40;72.50
66190;DHT22;52992;52.084;5.412;2022-12-20T04:29:20;13.40;72.50
66190;DHT22;52992;52.084;5.412;2022-12-20T04:31:48;13.40;72.80
66190;DHT22;52992;52.084;5.412;2022-12-20T04:34:15;13.40;72.50
66190;DHT22;52992;52.084;5.412;2022-12-20T04:36:42;13.40;72.50
66190;DHT22;52992;52.084;5.412;2022-12-20T04:39:15;13.50;72.70
66190;DHT22;52992;52.084;5.412;2022-12-20T04:42:00;13.50;72.70
66190;DHT22;52992;52.084;5.412;2022-12-20T04:44:27;13.60;72.30
66190;DHT22;52992;52.084;5.412;2022-12-20T04:46:54;13.60;72.20
66190;DHT22;52992;52.084;5.412;2022-12-20T04:49:21;13.60;72.30
66190;DHT22;52992;52.084;5.412;2022-12-20T04:51:48;13.60;72.20
66190;DHT22;52992;52.084;5.412;2022-12-20T04:54:16;13.60;71.90
66190;DHT22;52992;52.084;5.412;2022-12-20T04:56:52;13.60;71.90
66190;DHT22;52992;52.084;5.412;2022-12-20T04:59:21;13.60;72.10
66190;DHT22;52992;52.084;5.412;2022-12-20T05:01:51;13.60;72.30
66190;DHT22;52992;52.084;5.412;2022-12-20T05:04:45;13.60;72.40
66190;DHT22;52992;52.084;5.412;2022-12-20T05:07:12;13.60;72.10
66190;DHT22;52992;52.084;5.412;2022-12-20T05:09:44;13.60;72.70
66190;DHT22;52992;52.084;5.412;2022-12-20T05:12:11;13.60;72.20
66190;DHT22;52992;52.084;5.412;2022-12-20T05:14:38;13.60;73.00
66190;DHT22;52992;52.084;5.412;2022-12-20T05:17:05;13.60;72.50
66190;DHT22;52992;52.084;5.412;2022-12-20T05:19:32;13.60;72.80
66190;DHT22;52992;52.084;5.412;2022-12-20T05:21:59;13.70;72.70
66190;DHT22;52992;52.084;5.412;2022-12-20T05:25:00;13.70;72.80
66190;DHT22;52992;52.084;5.412;2022-12-20T05:27:46;13.80;72.90
66190;DHT22;52992;52.084;5.412;2022-12-20T05:30:14;13.70;72.20
66190;DHT22;52992;52.084;5.412;2022-12-20T05:32:42;13.70;72.50
66190;DHT22;52992;52.084;5.412;2022-12-20T05:35:09;13.70;72.60
66190;DHT22;52992;52.084;5.412;2022-12-20T05:37:36;13.70;72.70
66190;DHT22;52992;52.084;5.412;2022-12-20T05:40:11;13.70;72.50
66190;DHT22;52992;52.084;5.412;2022-12-20T05:42:39;13.80;72.30
66190;DHT22;52992;52.084;5.412;2022-12-20T05:45:06;13.80;72.30
66190;DHT22;52992;52.084;5.412;2022-12-20T05:47:42;13.80;72.20
66190;DHT22;52992;52.084;5.412;2022-12-20T05:50:11;13.80;72.30
66190;DHT22;52992;52.084;5.412;2022-12-20T05:53:05;13.80;71.90
66190;DHT22;52992;52.084;5.412;2022-12-20T05:55:47;13.90;71.80
66190;DHT22;52992;52.084;5.412;2022-12-20T05:58:15;13.90;71.90
66190;DHT22;52992;52.084;5.412;2022-12-20T06:00:53;14.00;71.70
66190;DHT22;52992;52.084;5.412;2022-12-20T06:03:23;14.00;72.00
66190;DHT22;52992;52.084;5.412;2022-12-20T06:05:51;14.10;71.80
66190;DHT22;52992;52.084;5.412;2022-12-20T06:08:25;14.00;71.90
66190;DHT22;52992;52.084;5.412;2022-12-20T06:10:53;14.20;71.80
66190;DHT22;52992;52.084;5.412;2022-12-20T06:13:20;14.10;71.50
66190;DHT22;52992;52.084;5.412;2022-12-20T06:15:49;14.00;71.70
66190;DHT22;52992;52.084;5.412;2022-12-20T06:18:17;14.00;71.70
66190;DHT22;52992;52.084;5.412;2022-12-20T06:20:49;14.10;71.60
66190;DHT22;52992;52.084;5.412;2022-12-20T06:23:20;14.10;71.50
66190;DHT22;52992;52.084;5.412;2022-12-20T06:25:56;14.10;71.50
66190;DHT22;52992;52.084;5.412;2022-12-20T06:28:26;14.10;71.50
66190;DHT22;52992;52.084;5.412;2022-12-20T06:30:54;14.10;71.30
66190;DHT22;52992;52.084;5.412;2022-12-20T06:33:35;14.20;71.20
66190;DHT22;52992;52.084;5.412;2022-12-20T06:36:02;14.20;71.00
66190;DHT22;52992;52.084;5.412;2022-12-20T06:38:29;14.10;71.10
66190;DHT22;52992;52.084;5.412;2022-12-20T06:40:56;14.20;70.90
66190;DHT22;52992;52.084;5.412;2022-12-20T06:43:24;14.20;70.70
66190;DHT22;52992;52.084;5.412;2022-12-20T06:45:51;14.30;70.80
66190;DHT22;52992;52.084;5.412;2022-12-20T06:48:17;14.20;70.20
66190;DHT22;52992;52.084;5.412;2022-12-20T06:50:48;14.20;70.20
66190;DHT22;52992;52.084;5.412;2022-12-20T06:53:23;14.20;69.90
66190;DHT22;52992;52.084;5.412;2022-12-20T06:55:50;14.30;69.60
66190;DHT22;52992;52.084;5.412;2022-12-20T06:58:18;14.20;70.30
66190;DHT22;52992;52.084;5.412;2022-12-20T07:00:47;14.20;69.70
66190;DHT22;52992;52.084;5.412;2022-12-20T07:03:14;14.20;69.30
66190;DHT22;52992;52.084;5.412;2022-12-20T07:05:41;14.30;69.00
66190;DHT22;52992;52.084;5.412;2022-12-20T07:08:08;14.30;68.80
66190;DHT22;52992;52.084;5.412;2022-12-20T07:10:36;14.30;68.50
66190;DHT22;52992;52.084;5.412;2022-12-20T07:13:03;14.40;68.20
66190;DHT22;52992;52.084;5.412;2022-12-20T07:15:29;14.30;68.00
66190;DHT22;52992;52.084;5.412;2022-12-20T07:17:58;14.40;67.90
66190;DHT22;52992;52.084;5.412;2022-12-20T07:20:25;14.30;68.00
66190;DHT22;52992;52.084;5.412;2022-12-20T07:22:52;14.40;68.00
66190;DHT22;52992;52.084;5.412;2022-12-20T07:25:18;14.40;67.70
66190;DHT22;52992;52.084;5.412;2022-12-20T07:27:47;14.40;67.70
66190;DHT22;52992;52.084;5.412;2022-12-20T07:30:16;14.40;67.30
66190;DHT22;52992;52.084;5.412;2022-12-20T07:32:43;14.40;67.20
66190;DHT22;52992;52.084;5.412;2022-12-20T07:35:11;14.40;67.00
66190;DHT22;52992;52.084;5.412;2022-12-20T07:37:38;14.50;66.70
66190;DHT22;52992;52.084;5.412;2022-12-20T07:40:06;14.50;66.50
66190;DHT22;52992;52.084;5.412;2022-12-20T07:42:33;14.50;66.40
66190;DHT22;52992;52.084;5.412;2022-12-20T07:45:07;14.50;66.10
66190;DHT22;52992;52.084;5.412;2022-12-20T07:47:34;14.50;66.00
66190;DHT22;52992;52.084;5.412;2022-12-20T07:50:02;14.50;65.90
66190;DHT22;52992;52.084;5.412;2022-12-20T07:52:31;14.40;66.20
66190;DHT22;52992;52.084;5.412;2022-12-20T07:55:01;14.40;66.70
66190;DHT22;52992;52.084;5.412;2022-12-20T07:57:36;14.30;67.00
66190;DHT22;52992;52.084;5.412;2022-12-20T08:00:04;14.20;67.40
66190;DHT22;52992;52.084;5.412;2022-12-20T08:02:51;14.20;67.90
66190;DHT22;52992;52.084;5.412;2022-12-20T08:05:21;14.10;68.30
66190;DHT22;52992;52.084;5.412;2022-12-20T08:07:48;14.10;69.00
66190;DHT22;52992;52.084;5.412;2022-12-20T08:10:24;14.10;68.50
66190;DHT22;52992;52.084;5.412;2022-12-20T08:12:51;14.10;68.40
66190;DHT22;52992;52.084;5.412;2022-12-20T08:15:18;14.10;68.30
66190;DHT22;52992;52.084;5.412;2022-12-20T08:17:48;14.10;68.30
66190;DHT22;52992;52.084;5.412;2022-12-20T08:20:15;14.10;68.40
66190;DHT22;52992;52.084;5.412;2022-12-20T08:22:42;14.10;68.60
66190;DHT22;52992;52.084;5.412;2022-12-20T08:25:09;14.20;68.50
66190;DHT22;52992;52.084;5.412;2022-12-20T08:27:37;14.10;68.50
66190;DHT22;52992;52.084;5.412;2022-12-20T08:30:05;14.10;68.40
66190;DHT22;52992;52.084;5.412;2022-12-20T08:32:33;14.10;68.70
66190;DHT22;52992;52.084;5.412;2022-12-20T08:34:59;14.10;69.00
66190;DHT22;52992;52.084;5.412;2022-12-20T08:37:26;14.10;68.80
66190;DHT22;52992;52.084;5.412;2022-12-20T08:39:53;14.00;68.80
66190;DHT22;52992;52.084;5.412;2022-12-20T08:42:20;14.00;69.00
66190;DHT22;52992;52.084;5.412;2022-12-20T08:44:47;14.00;69.00
66190;DHT22;52992;52.084;5.412;2022-12-20T08:47:14;14.10;68.90
66190;DHT22;52992;52.084;5.412;2022-12-20T08:49:41;14.10;68.80
66190;DHT22;52992;52.084;5.412;2022-12-20T08:52:13;14.10;68.80
66190;DHT22;52992;52.084;5.412;2022-12-20T08:54:40;14.00;68.70
66190;DHT22;52992;52.084;5.412;2022-12-20T08:57:07;14.10;68.90
66190;DHT22;52992;52.084;5.412;2022-12-20T08:59:34;14.00;69.10
66190;DHT22;52992;52.084;5.412;2022-12-20T09:02:01;14.00;69.40
66190;DHT22;52992;52.084;5.412;2022-12-20T09:04:28;13.90;69.70
66190;DHT22;52992;52.084;5.412;2022-12-20T09:06:55;13.80;70.00
66190;DHT22;52992;52.084;5.412;2022-12-20T09:09:21;13.80;71.20
66190;DHT22;52992;52.084;5.412;2022-12-20T09:11:48;13.70;72.40
66190;DHT22;52992;52.084;5.412;2022-12-20T09:14:15;13.70;72.90
66190;DHT22;52992;52.084;5.412;2022-12-20T09:16:42;13.80;72.90
66190;DHT22;52992;52.084;5.412;2022-12-20T09:19:11;13.70;73.10
66190;DHT22;52992;52.084;5.412;2022-12-20T09:21:38;13.70;73.30
66190;DHT22;52992;52.084;5.412;2022-12-20T09:24:05;13.70;73.50
66190;DHT22;52992;52.084;5.412;2022-12-20T09:26:33;13.70;73.40
66190;DHT22;52992;52.084;5.412;2022-12-20T09:29:01;13.70;74.40
66190;DHT22;52992;52.084;5.412;2022-12-20T09:31:28;13.70;73.50
66190;DHT22;52992;52.084;5.412;2022-12-20T09:33:56;13.60;73.70
66190;DHT22;52992;52.084;5.412;2022-12-20T09:36:28;13.60;74.40
66190;DHT22;52992;52.084;5.412;2022-12-20T09:38:56;13.50;74.70
66190;DHT22;52992;52.084;5.412;2022-12-20T09:41:41;13.60;75.20
66190;DHT22;52992;52.084;5.412;2022-12-20T09:46:58;13.40;75.00
66190;DHT22;52992;52.084;5.412;2022-12-20T09:49:39;13.70;75.20
66190;DHT22;52992;52.084;5.412;2022-12-20T09:52:40;13.60;74.90
66190;DHT22;52992;52.084;5.412;2022-12-20T10:00:46;13.60;75.10
66190;DHT22;52992;52.084;5.412;2022-12-20T10:03:26;13.70;75.70
66190;DHT22;52992;52.084;5.412;2022-12-20T10:05:58;13.60;75.60
66190;DHT22;52992;52.084;5.412;2022-12-20T10:11:10;13.70;76.00
66190;DHT22;52992;52.084;5.412;2022-12-20T10:16:47;13.70;75.40
66190;DHT22;52992;52.084;5.412;2022-12-20T10:19:34;13.70;75.70
66190;DHT22;52992;52.084;5.412;2022-12-20T10:24:37;13.80;75.60
66190;DHT22;52992;52.084;5.412;2022-12-20T10:27:16;13.80;75.80
66190;DHT22;52992;52.084;5.412;2022-12-20T10:29:44;13.80;75.80
66190;DHT22;52992;52.084;5.412;2022-12-20T10:32:15;14.00;75.90
66190;DHT22;52992;52.084;5.412;2022-12-20T10:34:56;13.80;75.80
66190;DHT22;52992;52.084;5.412;2022-12-20T10:37:25;13.90;76.10
66190;DHT22;52992;52.084;5.412;2022-12-20T10:39:52;13.90;75.90
66190;DHT22;52992;52.084;5.412;2022-12-20T10:42:23;13.90;76.00
66190;DHT22;52992;52.084;5.412;2022-12-20T10:44:51;13.90;76.20
66190;DHT22;52992;52.084;5.412;2022-12-20T10:47:42;14.00;76.00
66190;DHT22;52992;52.084;5.412;2022-12-20T10:52:43;14.00;76.40
66190;DHT22;52992;52.084;5.412;2022-12-20T11:01:16;14.10;76.20
66190;DHT22;52992;52.084;5.412;2022-12-20T11:03:59;14.00;76.10
66190;DHT22;52992;52.084;5.412;2022-12-20T11:06:40;14.00;76.50
66190;DHT22;52992;52.084;5.412;2022-12-20T11:09:24;14.00;76.30
66190;DHT22;52992;52.084;5.412;2022-12-20T11:14:24;14.00;76.30
66190;DHT22;52992;52.084;5.412;2022-12-20T11:16:53;14.00;76.60
66190;DHT22;52992;52.084;5.412;2022-12-20T11:19:59;14.00;76.60
66190;DHT22;52992;52.084;5.412;2022-12-20T11:25:18;14.20;76.30
66190;DHT22;52992;52.084;5.412;2022-12-20T11:30:24;14.20;76.40
66190;DHT22;52992;52.084;5.412;2022-12-20T11:35:46;14.30;75.90
66190;DHT22;52992;52.084;5.412;2022-12-20T11:41:10;14.20;76.10
66190;DHT22;52992;52.084;5.412;2022-12-20T11:44:10;14.20;76.10
66190;DHT22;52992;52.084;5.412;2022-12-20T11:50:35;14.10;76.60
66190;DHT22;52992;52.084;5.412;2022-12-20T11:53:26;14.20;76.70
66190;DHT22;52992;52.084;5.412;2022-12-20T11:56:01;14.20;76.70
66190;DHT22;52992;52.084;5.412;2022-12-20T11:58:39;14.20;76.50
66190;DHT22;52992;52.084;5.412;2022-12-20T12:01:13;14.30;76.50
66190;DHT22;52992;52.084;5.412;2022-12-20T12:04:03;14.30;76.40
66190;DHT22;52992;52.084;5.412;2022-12-20T12:06:40;14.30;76.30
66190;DHT22;52992;52.084;5.412;2022-12-20T12:09:31;14.30;76.50
66190;DHT22;52992;52.084;5.412;2022-12-20T12:20:46;14.30;76.70
66190;DHT22;52992;52.084;5.412;2022-12-20T12:26:27;14.30;76.60
66190;DHT22;52992;52.084;5.412;2022-12-20T12:29:05;14.40;76.70
66190;DHT22;52992;52.084;5.412;2022-12-20T12:35:19;14.50;76.30
66190;DHT22;52992;52.084;5.412;2022-12-20T12:45:52;14.40;76.50
66190;DHT22;52992;52.084;5.412;2022-12-20T12:48:49;14.50;76.70
66190;DHT22;52992;52.084;5.412;2022-12-20T12:51:28;14.50;76.50
66190;DHT22;52992;52.084;5.412;2022-12-20T12:54:12;14.50;76.10
66190;DHT22;52992;52.084;5.412;2022-12-20T12:56:45;14.50;76.10
66190;DHT22;52992;52.084;5.412;2022-12-20T12:59:20;14.50;76.00
66190;DHT22;52992;52.084;5.412;2022-12-20T13:11:53;14.50;76.30
66190;DHT22;52992;52.084;5.412;2022-12-20T13:19:48;14.60;76.30
66190;DHT22;52992;52.084;5.412;2022-12-20T13:38:03;14.30;78.50
66190;DHT22;52992;52.084;5.412;2022-12-20T13:40:47;14.50;77.50
66190;DHT22;52992;52.084;5.412;2022-12-20T13:48:40;14.50;76.50
66190;DHT22;52992;52.084;5.412;2022-12-20T13:51:08;14.60;76.70
66190;DHT22;52992;52.084;5.412;2022-12-20T13:53:35;14.60;76.80
66190;DHT22;52992;52.084;5.412;2022-12-20T13:58:57;14.50;77.20
66190;DHT22;52992;52.084;5.412;2022-12-20T14:01:25;14.50;76.80
66190;DHT22;52992;52.084;5.412;2022-12-20T14:03:52;14.50;77.10
66190;DHT22;52992;52.084;5.412;2022-12-20T14:06:22;14.60;77.30
66190;DHT22;52992;52.084;5.412;2022-12-20T14:08:53;14.50;77.10
66190;DHT22;52992;52.084;5.412;2022-12-20T14:11:24;14.50;77.10
66190;DHT22;52992;52.084;5.412;2022-12-20T14:14:00;14.50;77.50
66190;DHT22;52992;52.084;5.412;2022-12-20T14:16:30;14.50;77.50
66190;DHT22;52992;52.084;5.412;2022-12-20T14:19:03;14.50;77.30
66190;DHT22;52992;52.084;5.412;2022-12-20T14:21:34;14.50;77.30
66190;DHT22;52992;52.084;5.412;2022-12-20T14:24:02;14.50;77.40
66190;DHT22;52992;52.084;5.412;2022-12-20T14:26:35;14.50;77.80
66190;DHT22;52992;52.084;5.412;2022-12-20T14:29:10;14.50;77.80
66190;DHT22;52992;52.084;5.412;2022-12-20T14:31:43;14.50;77.40
66190;DHT22;52992;52.084;5.412;2022-12-20T14:36:41;14.50;77.10
66190;DHT22;52992;52.084;5.412;2022-12-20T14:39:28;14.50;77.20
66190;DHT22;52992;52.084;5.412;2022-12-20T14:41:59;14.40;77.20
66190;DHT22;52992;52.084;5.412;2022-12-20T14:44:30;14.40;77.30
66190;DHT22;52992;52.084;5.412;2022-12-20T14:47:00;14.40;77.50
66190;DHT22;52992;52.084;5.412;2022-12-20T14:49:35;14.40;77.40
66190;DHT22;52992;52.084;5.412;2022-12-20T14:52:15;14.40;77.80
66190;DHT22;52992;52.084;5.412;2022-12-20T14:55:05;14.30;77.50
66190;DHT22;52992;52.084;5.412;2022-12-20T15:05:35;14.50;77.60
66190;DHT22;52992;52.084;5.412;2022-12-20T15:16:04;14.40;77.10
66190;DHT22;52992;52.084;5.412;2022-12-20T15:18:32;14.30;77.50
66190;DHT22;52992;52.084;5.412;2022-12-20T15:21:34;14.40;77.20
66190;DHT22;52992;52.084;5.412;2022-12-20T15:24:05;14.40;77.20
66190;DHT22;52992;52.084;5.412;2022-12-20T15:26:35;14.40;76.80
66190;DHT22;52992;52.084;5.412;2022-12-20T15:29:03;14.40;76.90
66190;DHT22;52992;52.084;5.412;2022-12-20T15:31:32;14.40;76.80
66190;DHT22;52992;52.084;5.412;2022-12-20T15:34:03;14.30;77.80
66190;DHT22;52992;52.084;5.412;2022-12-20T15:36:32;14.30;77.10
66190;DHT22;52992;52.084;5.412;2022-12-20T15:38:59;14.40;77.00
66190;DHT22;52992;52.084;5.412;2022-12-20T15:41:43;14.30;76.80
66190;DHT22;52992;52.084;5.412;2022-12-20T15:44:20;14.30;77.30
66190;DHT22;52992;52.084;5.412;2022-12-20T15:46:48;14.30;77.40
66190;DHT22;52992;52.084;5.412;2022-12-20T15:49:23;14.40;77.20
66190;DHT22;52992;52.084;5.412;2022-12-20T15:51:52;14.30;77.00
66190;DHT22;52992;52.084;5.412;2022-12-20T15:54:25;14.30;77.00
66190;DHT22;52992;52.084;5.412;2022-12-20T15:56:54;14.30;77.20
66190;DHT22;52992;52.084;5.412;2022-12-20T15:59:22;14.30;77.10
66190;DHT22;52992;52.084;5.412;2022-12-20T16:02:22;14.30;77.10
66190;DHT22;52992;52.084;5.412;2022-12-20T16:04:51;14.30;77.00
66190;DHT22;52992;52.084;5.412;2022-12-20T16:07:18;14.30;77.00
66190;DHT22;52992;52.084;5.412;2022-12-20T16:09:45;14.30;77.20
66190;DHT22;52992;52.084;5.412;2022-12-20T16:12:17;14.30;77.00
66190;DHT22;52992;52.084;5.412;2022-12-20T16:14:44;14.30;77.40
66190;DHT22;52992;52.084;5.412;2022-12-20T16:17:12;14.40;77.10
66190;DHT22;52992;52.084;5.412;2022-12-20T16:19:40;14.30;77.10
66190;DHT22;52992;52.084;5.412;2022-12-20T16:22:20;14.30;77.00
66190;DHT22;52992;52.084;5.412;2022-12-20T16:24:48;14.30;77.20
66190;DHT22;52992;52.084;5.412;2022-12-20T16:27:15;14.20;77.40
66190;DHT22;52992;52.084;5.412;2022-12-20T16:29:41;14.20;77.10
66190;DHT22;52992;52.084;5.412;2022-12-20T16:32:16;14.30;77.20
66190;DHT22;52992;52.084;5.412;2022-12-20T16:34:44;14.20;77.40
66190;DHT22;52992;52.084;5.412;2022-12-20T16:37:11;14.10;77.20
66190;DHT22;52992;52.084;5.412;2022-12-20T16:39:38;14.30;77.20
66190;DHT22;52992;52.084;5.412;2022-12-20T16:42:20;14.10;77.60
66190;DHT22;52992;52.084;5.412;2022-12-20T16:44:52;14.20;77.30
66190;DHT22;52992;52.084;5.412;2022-12-20T16:47:19;14.10;77.20
66190;DHT22;52992;52.084;5.412;2022-12-20T16:49:45;14.10;77.40
66190;DHT22;52992;52.084;5.412;2022-12-20T16:52:19;14.10;77.50
66190;DHT22;52992;52.084;5.412;2022-12-20T16:54:47;14.10;77.20
66190;DHT22;52992;52.084;5.412;2022-12-20T16:57:15;14.00;77.40
66190;DHT22;52992;52.084;5.412;2022-12-20T16:59:42;14.10;77.80
66190;DHT22;52992;52.084;5.412;2022-12-20T17:02:27;14.20;77.70
66190;DHT22;52992;52.084;5.412;2022-12-20T17:04:55;14.10;77.90
66190;DHT22;52992;52.084;5.412;2022-12-20T17:07:22;14.00;77.60
66190;DHT22;52992;52.084;5.412;2022-12-20T17:09:48;14.10;77.80
66190;DHT22;52992;52.084;5.412;2022-12-20T17:12:20;14.10;77.80
66190;DHT22;52992;52.084;5.412;2022-12-20T17:14:47;14.10;77.80
66190;DHT22;52992;52.084;5.412;2022-12-20T17:17:14;14.00;77.60
66190;DHT22;52992;52.084;5.412;2022-12-20T17:19:41;14.00;77.60
66190;DHT22;52992;52.084;5.412;2022-12-20T17:22:10;14.00;77.90
66190;DHT22;52992;52.084;5.412;2022-12-20T17:24:50;14.10;78.00
66190;DHT22;52992;52.084;5.412;2022-12-20T17:27:17;14.10;77.40
66190;DHT22;52992;52.084;5.412;2022-12-20T17:29:44;14.10;77.10
66190;DHT22;52992;52.084;5.412;2022-12-20T17:32:20;14.20;77.40
66190;DHT22;52992;52.084;5.412;2022-12-20T17:34:47;14.10;77.70
66190;DHT22;52992;52.084;5.412;2022-12-20T17:37:14;14.10;77.60
66190;DHT22;52992;52.084;5.412;2022-12-20T17:39:43;14.10;77.30
66190;DHT22;52992;52.084;5.412;2022-12-20T17:42:12;14.10;77.60
66190;DHT22;52992;52.084;5.412;2022-12-20T17:44:40;14.10;77.60
66190;DHT22;52992;52.084;5.412;2022-12-20T17:47:06;14.20;77.60
66190;DHT22;52992;52.084;5.412;2022-12-20T17:49:33;14.20;77.50
66190;DHT22;52992;52.084;5.412;2022-12-20T17:52:00;14.10;77.40
66190;DHT22;52992;52.084;5.412;2022-12-20T17:54:27;14.00;77.60
66190;DHT22;52992;52.084;5.412;2022-12-20T17:57:04;14.10;77.90
66190;DHT22;52992;52.084;5.412;2022-12-20T17:59:31;14.00;77.60
66190;DHT22;52992;52.084;5.412;2022-12-20T18:01:58;14.10;77.50
66190;DHT22;52992;52.084;5.412;2022-12-20T18:04:25;14.10;77.50
66190;DHT22;52992;52.084;5.412;2022-12-20T18:06:52;14.10;77.60
66190;DHT22;52992;52.084;5.412;2022-12-20T18:09:20;14.10;77.60
66190;DHT22;52992;52.084;5.412;2022-12-20T18:11:47;14.10;77.60
66190;DHT22;52992;52.084;5.412;2022-12-20T18:14:14;14.10;77.50